Aérodrome :
LOGIN :

S'inscrire | Disclaimer

   EN    FR    IT 

 










Légende :    VFR   VFR Marginal   IFR   IFR Intensif   IFR Très Intensif
Visi : 
Plafond : 
>= 8 km
>= 3000ft
5 à 8 km
1000 à 3000 ft
1500m à 5 km
500 à 1000 ft
800 à 1500m
200 à 500 ft
< 800m
< 200 ft
Symboles :   Orages  Brouillard  Fortes neiges  Fortes précipitations  Vent > 20 kt
SIGMETs :   Divers  Orages  Givrage  Turbulence  Onde Orograph.  Cendres Volcan.






- Altitude de l'aérodrome : 20 ft
- Code IATA : LSI


EGPB - Sumburgh

DERNIER METAR :
  • 021620Z AUTO 32027G38KT 9999 BKN034/// 05/M03 Q1000

METARs EXPIRÉS :
  • 021550Z AUTO 32029KT 9999 BKN033/// 05/M03 Q0999
  • 021520Z AUTO 32029KT 9999 SCT030/// 05/M02 Q0999
  • 021450Z AUTO 33032G42KT 9999 FEW021/// 04/M00 Q0998
  • 021420Z 32031KT 9999 VCSH FEW020CB SCT040 05/M00 Q0997
  • 021350Z 32028KT 9000 VCSH SCT015CB BKN040 05/M00 Q0997 TEMPO TEMPO 4000 SHRAGS BKN014CB

TAF TAF EGPB
Valide du 02 à 15h jusqu'au 03 à 00h UTC


021357Z 0215/0224 30030G40KT 9999 FEW012 SCT030
BECMG 0215/0218 33020G30KT
TEMPO 0215/0218 31042G55KT
PROB40
TEMPO 0215/0224 2500 SHSN SHRAGS BKN008CB



MET'MAP, la Météo Aéronautique d'un coup d'oeil ! - Copyright ORBIFLY Décembre 2007 - Disclaimer

ORBIFLY MET'MAP TEAM :

Programmation & Développement : Alexandra Zaïnal
Sur une idée originale de : Baudouin d'Aumeries
Assistance à la programmation : Marc-Olivier Méhu
Soutien technique & logistique : Manuel Goepfert

Contact : metmap@orbifly.com




SOURCES & CREDITS :

   NOAA